sensor_id;sensor_type;location;lat;lon;timestamp;pressure;altitude;pressure_sealevel;temperature;humidity
24422;BME280;12600;53.326;-6.298;2023-02-12T00:02:05;103215.25;;;11.94;55.37
24422;BME280;12600;53.326;-6.298;2023-02-12T00:04:54;103216.34;;;11.93;55.20
24422;BME280;12600;53.326;-6.298;2023-02-12T00:07:45;103209.75;;;11.89;55.17
24422;BME280;12600;53.326;-6.298;2023-02-12T00:10:34;103213.59;;;11.93;55.41
24422;BME280;12600;53.326;-6.298;2023-02-12T00:13:29;103215.25;;;11.94;55.08
24422;BME280;12600;53.326;-6.298;2023-02-12T00:16:23;103225.38;;;11.93;55.27
24422;BME280;12600;53.326;-6.298;2023-02-12T00:19:13;103222.09;;;11.91;55.28
24422;BME280;12600;53.326;-6.298;2023-02-12T00:22:02;103221.25;;;11.91;55.60
24422;BME280;12600;53.326;-6.298;2023-02-12T00:24:53;103227.25;;;11.88;55.30
24422;BME280;12600;53.326;-6.298;2023-02-12T00:27:43;103222.59;;;11.88;55.41
24422;BME280;12600;53.326;-6.298;2023-02-12T00:30:32;103205.53;;;11.81;55.85
24422;BME280;12600;53.326;-6.298;2023-02-12T00:33:21;103217.56;;;11.80;55.94
24422;BME280;12600;53.326;-6.298;2023-02-12T00:36:15;103205.16;;;11.77;56.00
24422;BME280;12600;53.326;-6.298;2023-02-12T00:39:04;103211.25;;;11.80;56.15
24422;BME280;12600;53.326;-6.298;2023-02-12T00:41:57;103219.28;;;11.86;55.73
24422;BME280;12600;53.326;-6.298;2023-02-12T00:44:46;103215.41;;;11.82;55.97
24422;BME280;12600;53.326;-6.298;2023-02-12T00:47:35;103205.44;;;11.76;56.22
24422;BME280;12600;53.326;-6.298;2023-02-12T00:50:24;103212.97;;;11.86;55.75
24422;BME280;12600;53.326;-6.298;2023-02-12T00:53:16;103214.38;;;11.88;55.82
24422;BME280;12600;53.326;-6.298;2023-02-12T00:56:06;103200.63;;;11.83;56.13
24422;BME280;12600;53.326;-6.298;2023-02-12T00:58:57;103197.69;;;11.90;55.92
24422;BME280;12600;53.326;-6.298;2023-02-12T01:01:47;103205.09;;;11.89;56.15
24422;BME280;12600;53.326;-6.298;2023-02-12T01:04:36;103197.69;;;11.90;55.96
24422;BME280;12600;53.326;-6.298;2023-02-12T01:07:25;103181.13;;;11.80;55.99
24422;BME280;12600;53.326;-6.298;2023-02-12T01:10:17;103188.56;;;11.84;56.29
24422;BME280;12600;53.326;-6.298;2023-02-12T01:13:09;103189.41;;;11.85;56.34
24422;BME280;12600;53.326;-6.298;2023-02-12T01:16:14;103187.22;;;11.87;56.40
24422;BME280;12600;53.326;-6.298;2023-02-12T01:19:04;103183.91;;;11.85;56.48
24422;BME280;12600;53.326;-6.298;2023-02-12T01:21:54;103182.00;;;11.85;56.32
24422;BME280;12600;53.326;-6.298;2023-02-12T01:24:43;103174.88;;;11.84;56.51
24422;BME280;12600;53.326;-6.298;2023-02-12T01:27:33;103173.50;;;11.82;56.46
24422;BME280;12600;53.326;-6.298;2023-02-12T01:30:23;103174.63;;;11.86;56.66
24422;BME280;12600;53.326;-6.298;2023-02-12T01:33:13;103168.56;;;11.84;56.73
24422;BME280;12600;53.326;-6.298;2023-02-12T01:36:03;103151.47;;;11.76;57.03
24422;BME280;12600;53.326;-6.298;2023-02-12T01:38:52;103155.63;;;11.79;57.20
24422;BME280;12600;53.326;-6.298;2023-02-12T01:41:43;103155.63;;;11.79;57.08
24422;BME280;12600;53.326;-6.298;2023-02-12T01:44:35;103147.59;;;11.72;56.80
24422;BME280;12600;53.326;-6.298;2023-02-12T01:47:25;103166.38;;;11.81;57.11
24422;BME280;12600;53.326;-6.298;2023-02-12T01:50:18;103151.72;;;11.75;56.72
24422;BME280;12600;53.326;-6.298;2023-02-12T01:53:08;103150.38;;;11.77;56.79
24422;BME280;12600;53.326;-6.298;2023-02-12T01:56:00;103142.97;;;11.73;56.79
24422;BME280;12600;53.326;-6.298;2023-02-12T01:58:51;103138.78;;;11.70;57.04
24422;BME280;12600;53.326;-6.298;2023-02-12T02:01:42;103144.91;;;11.77;57.03
24422;BME280;12600;53.326;-6.298;2023-02-12T02:04:35;103134.75;;;11.73;56.85
24422;BME280;12600;53.326;-6.298;2023-02-12T02:07:28;103144.09;;;11.77;56.69
24422;BME280;12600;53.326;-6.298;2023-02-12T02:10:17;103136.69;;;11.77;56.57
24422;BME280;12600;53.326;-6.298;2023-02-12T02:13:07;103133.66;;;11.74;56.71
24422;BME280;12600;53.326;-6.298;2023-02-12T02:16:20;103133.13;;;11.77;56.95
24422;BME280;12600;53.326;-6.298;2023-02-12T02:19:24;103133.38;;;11.75;56.41
24422;BME280;12600;53.326;-6.298;2023-02-12T02:22:30;103133.66;;;11.74;56.72
24422;BME280;12600;53.326;-6.298;2023-02-12T02:29:19;103131.47;;;11.76;56.22
24422;BME280;12600;53.326;-6.298;2023-02-12T02:32:20;103135.00;;;11.71;56.44
24422;BME280;12600;53.326;-6.298;2023-02-12T02:35:14;103136.13;;;11.75;56.53
24422;BME280;12600;53.326;-6.298;2023-02-12T02:38:17;103135.81;;;11.72;56.41
24422;BME280;12600;53.326;-6.298;2023-02-12T02:41:14;103143.44;;;11.70;56.26
24422;BME280;12600;53.326;-6.298;2023-02-12T02:44:11;103139.97;;;11.74;56.48
24422;BME280;12600;53.326;-6.298;2023-02-12T02:47:05;103134.75;;;11.73;56.65
24422;BME280;12600;53.326;-6.298;2023-02-12T02:50:04;103138.56;;;11.72;56.36
24422;BME280;12600;53.326;-6.298;2023-02-12T02:52:58;103142.44;;;11.76;56.43
24422;BME280;12600;53.326;-6.298;2023-02-12T02:55:53;103134.66;;;11.68;56.06
24422;BME280;12600;53.326;-6.298;2023-02-12T02:58:48;103144.03;;;11.72;55.98
24422;BME280;12600;53.326;-6.298;2023-02-12T03:01:43;103147.34;;;11.74;55.92
24422;BME280;12600;53.326;-6.298;2023-02-12T03:04:35;103140.78;;;11.75;56.05
24422;BME280;12600;53.326;-6.298;2023-02-12T03:07:32;103127.03;;;11.70;55.97
24422;BME280;12600;53.326;-6.298;2023-02-12T03:10:28;103135.00;;;11.71;55.95
24422;BME280;12600;53.326;-6.298;2023-02-12T03:13:23;103137.47;;;11.73;56.04
24422;BME280;12600;53.326;-6.298;2023-02-12T03:16:19;103135.50;;;11.68;55.93
24422;BME280;12600;53.326;-6.298;2023-02-12T03:19:16;103130.59;;;11.70;56.19
24422;BME280;12600;53.326;-6.298;2023-02-12T03:22:11;103129.75;;;11.70;56.06
24422;BME280;12600;53.326;-6.298;2023-02-12T03:25:10;103117.09;;;11.64;56.20
24422;BME280;12600;53.326;-6.298;2023-02-12T03:28:06;103129.53;;;11.71;56.40
24422;BME280;12600;53.326;-6.298;2023-02-12T03:31:04;103117.94;;;11.64;56.11
24422;BME280;12600;53.326;-6.298;2023-02-12T03:34:05;103126.19;;;11.69;56.02
24422;BME280;12600;53.326;-6.298;2023-02-12T03:37:02;103115.75;;;11.66;56.41
24422;BME280;12600;53.326;-6.298;2023-02-12T03:39:56;103109.09;;;11.57;56.50
24422;BME280;12600;53.326;-6.298;2023-02-12T03:42:58;103111.63;;;11.64;56.57
24422;BME280;12600;53.326;-6.298;2023-02-12T03:45:54;103108.91;;;11.64;56.62
24422;BME280;12600;53.326;-6.298;2023-02-12T03:48:55;103100.88;;;11.57;56.96
24422;BME280;12600;53.326;-6.298;2023-02-12T03:51:47;103110.53;;;11.65;56.95
24422;BME280;12600;53.326;-6.298;2023-02-12T03:54:36;103109.13;;;11.62;57.09
24422;BME280;12600;53.326;-6.298;2023-02-12T03:57:29;103114.88;;;11.61;56.92
24422;BME280;12600;53.326;-6.298;2023-02-12T04:00:24;103098.63;;;11.54;57.25
24422;BME280;12600;53.326;-6.298;2023-02-12T04:03:13;103100.34;;;11.60;57.59
24422;BME280;12600;53.326;-6.298;2023-02-12T04:06:03;103100.63;;;11.59;57.30
24422;BME280;12600;53.326;-6.298;2023-02-12T04:08:54;103108.81;;;11.59;57.52
24422;BME280;12600;53.326;-6.298;2023-02-12T04:11:57;103099.53;;;11.60;57.63
24422;BME280;12600;53.326;-6.298;2023-02-12T04:14:54;103097.06;;;11.58;57.82
24422;BME280;12600;53.326;-6.298;2023-02-12T04:17:53;103104.19;;;11.59;57.84
24422;BME280;12600;53.326;-6.298;2023-02-12T04:20:53;103100.03;;;11.57;58.01
24422;BME280;12600;53.326;-6.298;2023-02-12T04:23:51;103093.75;;;11.56;58.11
24422;BME280;12600;53.326;-6.298;2023-02-12T04:26:51;103098.13;;;11.57;58.45
24422;BME280;12600;53.326;-6.298;2023-02-12T04:29:49;103099.22;;;11.56;58.46
24422;BME280;12600;53.326;-6.298;2023-02-12T04:32:44;103095.59;;;11.51;58.50
24422;BME280;12600;53.326;-6.298;2023-02-12T04:35:42;103091.47;;;11.48;58.89
24422;BME280;12600;53.326;-6.298;2023-02-12T04:38:37;103107.94;;;11.53;58.97
24422;BME280;12600;53.326;-6.298;2023-02-12T04:41:30;103105.19;;;11.53;58.77
24422;BME280;12600;53.326;-6.298;2023-02-12T04:44:23;103109.84;;;11.53;58.85
24422;BME280;12600;53.326;-6.298;2023-02-12T04:47:15;103110.09;;;11.51;59.30
24422;BME280;12600;53.326;-6.298;2023-02-12T04:50:06;103104.88;;;11.49;59.25
24422;BME280;12600;53.326;-6.298;2023-02-12T04:52:57;103118.06;;;11.53;59.26
24422;BME280;12600;53.326;-6.298;2023-02-12T04:55:46;103116.13;;;11.53;59.41
24422;BME280;12600;53.326;-6.298;2023-02-12T04:58:37;103112.28;;;11.49;59.57
24422;BME280;12600;53.326;-6.298;2023-02-12T05:01:26;103125.69;;;11.51;59.46
24422;BME280;12600;53.326;-6.298;2023-02-12T05:04:18;103115.50;;;11.46;59.33
24422;BME280;12600;53.326;-6.298;2023-02-12T05:07:09;103120.50;;;11.49;59.73
24422;BME280;12600;53.326;-6.298;2023-02-12T05:10:00;103113.84;;;11.45;59.72
24422;BME280;12600;53.326;-6.298;2023-02-12T05:12:51;103127.03;;;11.48;59.65
24422;BME280;12600;53.326;-6.298;2023-02-12T05:15:40;103127.28;;;11.46;59.67
24422;BME280;12600;53.326;-6.298;2023-02-12T05:18:30;103130.53;;;11.43;59.80
24422;BME280;12600;53.326;-6.298;2023-02-12T05:21:20;103133.28;;;11.43;59.74
24422;BME280;12600;53.326;-6.298;2023-02-12T05:24:09;103118.94;;;11.36;59.57
24422;BME280;12600;53.326;-6.298;2023-02-12T05:27:00;103125.81;;;11.39;59.69
24422;BME280;12600;53.326;-6.298;2023-02-12T05:29:49;103128.53;;;11.39;59.71
24422;BME280;12600;53.326;-6.298;2023-02-12T05:32:38;103124.69;;;11.35;59.82
24422;BME280;12600;53.326;-6.298;2023-02-12T05:35:27;103124.94;;;11.33;59.88
24422;BME280;12600;53.326;-6.298;2023-02-12T05:38:16;103116.38;;;11.30;60.01
24422;BME280;12600;53.326;-6.298;2023-02-12T05:41:07;103124.84;;;11.28;60.08
24422;BME280;12600;53.326;-6.298;2023-02-12T05:43:58;103120.72;;;11.26;59.97
24422;BME280;12600;53.326;-6.298;2023-02-12T05:46:48;103118.25;;;11.24;59.92
24422;BME280;12600;53.326;-6.298;2023-02-12T05:49:37;103115.81;;;11.28;60.23
24422;BME280;12600;53.326;-6.298;2023-02-12T05:52:27;103114.69;;;11.24;60.00
24422;BME280;12600;53.326;-6.298;2023-02-12T05:55:16;103118.00;;;11.26;59.98
24422;BME280;12600;53.326;-6.298;2023-02-12T05:58:05;103119.38;;;11.28;60.24
24422;BME280;12600;53.326;-6.298;2023-02-12T06:00:56;103122.13;;;11.28;60.29
24422;BME280;12600;53.326;-6.298;2023-02-12T06:03:45;103118.25;;;11.24;60.27
24422;BME280;12600;53.326;-6.298;2023-02-12T06:06:35;103118.56;;;11.28;60.22
24422;BME280;12600;53.326;-6.298;2023-02-12T06:09:24;103119.38;;;11.28;60.48
24422;BME280;12600;53.326;-6.298;2023-02-12T06:12:15;103112.53;;;11.26;60.31
24422;BME280;12600;53.326;-6.298;2023-02-12T06:15:04;103118.56;;;11.28;60.41
24422;BME280;12600;53.326;-6.298;2023-02-12T06:17:55;103119.38;;;11.28;60.53
24422;BME280;12600;53.326;-6.298;2023-02-12T06:20:44;103114.47;;;11.30;60.47
24422;BME280;12600;53.326;-6.298;2023-02-12T06:23:34;103102.66;;;11.25;60.50
24422;BME280;12600;53.326;-6.298;2023-02-12T06:26:23;103096.41;;;11.29;60.68
24422;BME280;12600;53.326;-6.298;2023-02-12T06:29:12;103099.13;;;11.29;60.62
24422;BME280;12600;53.326;-6.298;2023-02-12T06:32:02;103100.41;;;11.21;60.65
24422;BME280;12600;53.326;-6.298;2023-02-12T06:34:53;103083.16;;;11.21;60.72
24422;BME280;12600;53.326;-6.298;2023-02-12T06:37:42;103107.34;;;11.29;60.90
24422;BME280;12600;53.326;-6.298;2023-02-12T06:40:32;103097.50;;;11.28;60.73
24422;BME280;12600;53.326;-6.298;2023-02-12T06:43:21;103094.94;;;11.21;60.74
24422;BME280;12600;53.326;-6.298;2023-02-12T06:46:12;103084.59;;;11.24;60.79
24422;BME280;12600;53.326;-6.298;2023-02-12T06:49:02;103091.13;;;11.23;61.11
24422;BME280;12600;53.326;-6.298;2023-02-12T06:51:53;103091.19;;;11.28;60.95
24422;BME280;12600;53.326;-6.298;2023-02-12T06:54:42;103082.41;;;11.26;60.92
24422;BME280;12600;53.326;-6.298;2023-02-12T06:57:31;103091.53;;;11.31;60.95
24422;BME280;12600;53.326;-6.298;2023-02-12T07:00:21;103092.91;;;11.34;61.27
24422;BME280;12600;53.326;-6.298;2023-02-12T07:03:11;103080.31;;;11.33;61.03
24422;BME280;12600;53.326;-6.298;2023-02-12T07:06:02;103089.72;;;11.42;61.07
24422;BME280;12600;53.326;-6.298;2023-02-12T07:08:54;103083.69;;;11.40;61.23
24422;BME280;12600;53.326;-6.298;2023-02-12T07:11:43;103084.75;;;11.39;61.31
24422;BME280;12600;53.326;-6.298;2023-02-12T07:14:32;103078.91;;;11.30;61.27
24422;BME280;12600;53.326;-6.298;2023-02-12T07:17:22;103097.88;;;11.37;61.42
24422;BME280;12600;53.326;-6.298;2023-02-12T07:20:12;103097.88;;;11.37;61.39
24422;BME280;12600;53.326;-6.298;2023-02-12T07:23:01;103089.66;;;11.37;61.34
24422;BME280;12600;53.326;-6.298;2023-02-12T07:26:08;103086.88;;;11.32;61.45
24422;BME280;12600;53.326;-6.298;2023-02-12T07:28:57;103088.56;;;11.38;61.57
24422;BME280;12600;53.326;-6.298;2023-02-12T07:31:46;103103.91;;;11.39;61.76
24422;BME280;12600;53.326;-6.298;2023-02-12T07:34:35;103106.91;;;11.37;62.00
24422;BME280;12600;53.326;-6.298;2023-02-12T07:37:25;103096.16;;;11.31;62.05
24422;BME280;12600;53.326;-6.298;2023-02-12T07:40:14;103122.25;;;11.38;62.14
24422;BME280;12600;53.326;-6.298;2023-02-12T07:43:05;103112.06;;;11.34;62.32
24422;BME280;12600;53.326;-6.298;2023-02-12T07:45:55;103119.28;;;11.40;62.53
24422;BME280;12600;53.326;-6.298;2023-02-12T07:48:53;103123.06;;;11.39;62.59
24422;BME280;12600;53.326;-6.298;2023-02-12T07:51:42;103123.03;;;11.34;62.48
24422;BME280;12600;53.326;-6.298;2023-02-12T07:54:32;103124.97;;;11.38;62.94
24422;BME280;12600;53.326;-6.298;2023-02-12T07:57:21;103128.53;;;11.39;62.66
24422;BME280;12600;53.326;-6.298;2023-02-12T08:00:14;103126.06;;;11.37;62.62
24422;BME280;12600;53.326;-6.298;2023-02-12T08:03:04;103133.44;;;11.37;62.92
24422;BME280;12600;53.326;-6.298;2023-02-12T08:05:53;103134.28;;;11.37;62.73
24422;BME280;12600;53.326;-6.298;2023-02-12T08:08:43;103142.75;;;11.36;63.03
24422;BME280;12600;53.326;-6.298;2023-02-12T08:11:33;103141.09;;;11.35;62.78
24422;BME280;12600;53.326;-6.298;2023-02-12T08:14:22;103135.06;;;11.33;62.81
24422;BME280;12600;53.326;-6.298;2023-02-12T08:17:13;103138.94;;;11.37;62.94
24422;BME280;12600;53.326;-6.298;2023-02-12T08:20:02;103145.56;;;11.41;63.04
24422;BME280;12600;53.326;-6.298;2023-02-12T08:22:51;103145.81;;;11.39;62.84
24422;BME280;12600;53.326;-6.298;2023-02-12T08:25:40;103140.91;;;11.41;63.06
24422;BME280;12600;53.326;-6.298;2023-02-12T08:28:30;103146.97;;;11.43;62.95
24422;BME280;12600;53.326;-6.298;2023-02-12T08:31:22;103140.75;;;11.48;62.84
24422;BME280;12600;53.326;-6.298;2023-02-12T08:34:18;103139.69;;;11.54;62.87
24422;BME280;12600;53.326;-6.298;2023-02-12T08:37:09;103151.25;;;11.56;62.65
24422;BME280;12600;53.326;-6.298;2023-02-12T08:39:58;103158.63;;;11.56;62.62
24422;BME280;12600;53.326;-6.298;2023-02-12T08:42:47;103153.72;;;11.58;62.65
24422;BME280;12600;53.326;-6.298;2023-02-12T08:45:36;103143.03;;;11.56;62.95
24422;BME280;12600;53.326;-6.298;2023-02-12T08:48:26;103141.94;;;11.57;62.82
24422;BME280;12600;53.326;-6.298;2023-02-12T08:51:19;103141.94;;;11.57;62.65
24422;BME280;12600;53.326;-6.298;2023-02-12T08:54:12;103138.03;;;11.53;62.37
24422;BME280;12600;53.326;-6.298;2023-02-12T08:57:02;103131.47;;;11.54;62.73
24422;BME280;12600;53.326;-6.298;2023-02-12T08:59:51;103136.78;;;11.61;62.80
24422;BME280;12600;53.326;-6.298;2023-02-12T09:02:40;103140.66;;;11.65;62.48
24422;BME280;12600;53.326;-6.298;2023-02-12T09:05:30;103134.38;;;11.64;62.61
24422;BME280;12600;53.326;-6.298;2023-02-12T09:08:20;103128.81;;;11.59;63.01
24422;BME280;12600;53.326;-6.298;2023-02-12T09:11:12;103130.84;;;11.69;62.65
24422;BME280;12600;53.326;-6.298;2023-02-12T09:14:04;103133.09;;;11.72;62.52
24422;BME280;12600;53.326;-6.298;2023-02-12T09:16:54;103132.00;;;11.73;62.80
24422;BME280;12600;53.326;-6.298;2023-02-12T09:19:45;103134.22;;;11.76;62.58
24422;BME280;12600;53.326;-6.298;2023-02-12T09:22:34;103132.88;;;11.78;62.52
24422;BME280;12600;53.326;-6.298;2023-02-12T09:25:26;103128.00;;;11.81;62.68
24422;BME280;12600;53.326;-6.298;2023-02-12T09:28:16;103125.56;;;11.84;62.59
24422;BME280;12600;53.326;-6.298;2023-02-12T09:31:06;103116.53;;;11.84;62.44
24422;BME280;12600;53.326;-6.298;2023-02-12T09:33:59;103125.94;;;11.93;62.63
24422;BME280;12600;53.326;-6.298;2023-02-12T09:36:49;103114.47;;;11.96;62.25
24422;BME280;12600;53.326;-6.298;2023-02-12T09:39:38;103113.97;;;11.99;62.47
24422;BME280;12600;53.326;-6.298;2023-02-12T09:43:02;103111.78;;;12.01;62.52
24422;BME280;12600;53.326;-6.298;2023-02-12T09:45:59;103106.09;;;12.08;62.38
24422;BME280;12600;53.326;-6.298;2023-02-12T09:48:59;103106.72;;;12.15;62.11
24422;BME280;12600;53.326;-6.298;2023-02-12T09:51:53;103093.53;;;12.12;61.96
24422;BME280;12600;53.326;-6.298;2023-02-12T09:54:44;103099.06;;;12.17;61.33
24422;BME280;12600;53.326;-6.298;2023-02-12T09:57:35;103098.31;;;12.26;61.64
24422;BME280;12600;53.326;-6.298;2023-02-12T10:00:28;103084.59;;;12.26;61.71
24422;BME280;12600;53.326;-6.298;2023-02-12T10:03:18;103090.69;;;12.33;61.28
24422;BME280;12600;53.326;-6.298;2023-02-12T10:06:13;103083.28;;;12.29;61.11
24422;BME280;12600;53.326;-6.298;2023-02-12T10:09:24;103084.94;;;12.30;60.00
24422;BME280;12600;53.326;-6.298;2023-02-12T10:12:25;103087.34;;;12.26;60.19
24422;BME280;12600;53.326;-6.298;2023-02-12T10:15:37;103091.38;;;12.19;59.50
24422;BME280;12600;53.326;-6.298;2023-02-12T10:18:59;103092.44;;;12.13;58.28
24422;BME280;12600;53.326;-6.298;2023-02-12T10:22:00;103079.09;;;12.21;59.47
24422;BME280;12600;53.326;-6.298;2023-02-12T10:25:08;103087.97;;;12.33;59.23
24422;BME280;12600;53.326;-6.298;2023-02-12T10:28:11;103085.81;;;12.36;58.91
24422;BME280;12600;53.326;-6.298;2023-02-12T10:31:07;103086.91;;;12.40;57.76
24422;BME280;12600;53.326;-6.298;2023-02-12T10:33:59;103092.47;;;12.50;57.43
24422;BME280;12600;53.326;-6.298;2023-02-12T10:37:03;103083.69;;;12.48;57.61
24422;BME280;12600;53.326;-6.298;2023-02-12T10:39:57;103091.47;;;12.61;56.89
24422;BME280;12600;53.326;-6.298;2023-02-12T10:42:50;103087.66;;;12.67;55.54
24422;BME280;12600;53.326;-6.298;2023-02-12T10:45:42;103087.53;;;12.84;55.88
24422;BME280;12600;53.326;-6.298;2023-02-12T10:48:36;103089.19;;;12.90;54.49
24422;BME280;12600;53.326;-6.298;2023-02-12T10:54:47;103089.81;;;13.02;53.72
24422;BME280;12600;53.326;-6.298;2023-02-12T10:57:38;103071.94;;;12.95;53.26
24422;BME280;12600;53.326;-6.298;2023-02-12T11:00:31;103067.56;;;12.99;53.11
24422;BME280;12600;53.326;-6.298;2023-02-12T11:03:27;103075.25;;;12.97;52.24
24422;BME280;12600;53.326;-6.298;2023-02-12T11:06:22;103068.06;;;12.91;51.54
24422;BME280;12600;53.326;-6.298;2023-02-12T11:09:27;103074.78;;;13.10;51.95
24422;BME280;12600;53.326;-6.298;2023-02-12T11:12:28;103062.66;;;13.06;51.95
24422;BME280;12600;53.326;-6.298;2023-02-12T11:15:21;103074.84;;;13.20;52.09
24422;BME280;12600;53.326;-6.298;2023-02-12T11:18:21;103080.66;;;13.24;51.37
24422;BME280;12600;53.326;-6.298;2023-02-12T11:21:12;103079.28;;;13.26;51.05
24422;BME280;12600;53.326;-6.298;2023-02-12T11:27:22;103065.31;;;13.33;50.37
24422;BME280;12600;53.326;-6.298;2023-02-12T11:30:16;103063.13;;;13.40;50.09
24422;BME280;12600;53.326;-6.298;2023-02-12T11:33:25;103071.09;;;13.47;49.58
24422;BME280;12600;53.326;-6.298;2023-02-12T11:36:25;103067.88;;;13.70;49.75
24422;BME280;12600;53.326;-6.298;2023-02-12T11:39:20;103055.28;;;13.99;49.25
24422;BME280;12600;53.326;-6.298;2023-02-12T11:42:17;103040.16;;;14.17;48.39
24422;BME280;12600;53.326;-6.298;2023-02-12T11:45:16;103055.28;;;14.40;48.29
24422;BME280;12600;53.326;-6.298;2023-02-12T11:48:15;103043.16;;;14.67;48.21
24422;BME280;12600;53.326;-6.298;2023-02-12T11:51:09;103037.31;;;14.99;47.58
24422;BME280;12600;53.326;-6.298;2023-02-12T11:54:17;103026.97;;;15.35;47.44
24422;BME280;12600;53.326;-6.298;2023-02-12T11:57:36;103038.44;;;15.52;46.56
24422;BME280;12600;53.326;-6.298;2023-02-12T12:00:29;103041.13;;;15.73;46.53
24422;BME280;12600;53.326;-6.298;2023-02-12T12:03:24;103038.94;;;16.38;45.63
24422;BME280;12600;53.326;-6.298;2023-02-12T12:06:26;103037.47;;;17.22;43.74
24422;BME280;12600;53.326;-6.298;2023-02-12T12:09:21;103030.66;;;17.76;42.73
24422;BME280;12600;53.326;-6.298;2023-02-12T12:12:19;103032.34;;;18.56;40.88
24422;BME280;12600;53.326;-6.298;2023-02-12T12:15:18;103033.78;;;19.36;38.64
24422;BME280;12600;53.326;-6.298;2023-02-12T12:18:30;103015.81;;;19.83;38.25
24422;BME280;12600;53.326;-6.298;2023-02-12T12:21:40;103002.94;;;20.10;36.53
24422;BME280;12600;53.326;-6.298;2023-02-12T12:24:39;103002.56;;;20.03;37.02
24422;BME280;12600;53.326;-6.298;2023-02-12T12:27:37;102992.09;;;20.00;36.64
24422;BME280;12600;53.326;-6.298;2023-02-12T12:30:58;102981.84;;;19.42;36.13
24422;BME280;12600;53.326;-6.298;2023-02-12T12:33:54;102984.13;;;18.30;36.99
24422;BME280;12600;53.326;-6.298;2023-02-12T12:37:28;102982.53;;;17.77;37.91
24422;BME280;12600;53.326;-6.298;2023-02-12T12:40:37;102972.38;;;17.35;38.96
24422;BME280;12600;53.326;-6.298;2023-02-12T12:43:42;102959.13;;;16.70;39.59
24422;BME280;12600;53.326;-6.298;2023-02-12T12:46:47;102956.19;;;16.86;40.41
24422;BME280;12600;53.326;-6.298;2023-02-12T12:49:53;102961.81;;;16.75;40.30
24422;BME280;12600;53.326;-6.298;2023-02-12T12:53:15;102953.75;;;16.55;40.45
24422;BME280;12600;53.326;-6.298;2023-02-12T12:56:42;102965.03;;;16.06;41.38
24422;BME280;12600;53.326;-6.298;2023-02-12T13:00:02;102968.75;;;15.47;42.65
24422;BME280;12600;53.326;-6.298;2023-02-12T13:03:49;102949.72;;;15.11;43.15
24422;BME280;12600;53.326;-6.298;2023-02-12T13:06:58;102951.56;;;15.26;43.64
24422;BME280;12600;53.326;-6.298;2023-02-12T13:13:19;102942.28;;;16.43;43.66
24422;BME280;12600;53.326;-6.298;2023-02-12T13:16:18;102937.06;;;16.65;42.15
24422;BME280;12600;53.326;-6.298;2023-02-12T13:19:19;102942.91;;;16.88;41.31
24422;BME280;12600;53.326;-6.298;2023-02-12T13:22:16;102948.19;;;16.84;40.90
24422;BME280;12600;53.326;-6.298;2023-02-12T13:25:23;102942.25;;;16.96;40.88
24422;BME280;12600;53.326;-6.298;2023-02-12T13:28:23;102949.28;;;16.59;41.07
24422;BME280;12600;53.326;-6.298;2023-02-12T13:31:19;102947.97;;;16.28;41.54
24422;BME280;12600;53.326;-6.298;2023-02-12T13:34:24;102936.84;;;15.80;42.62
24422;BME280;12600;53.326;-6.298;2023-02-12T13:37:19;102930.47;;;15.50;43.10
24422;BME280;12600;53.326;-6.298;2023-02-12T13:40:16;102940.78;;;15.29;43.82
24422;BME280;12600;53.326;-6.298;2023-02-12T13:43:26;102938.41;;;15.13;44.55
24422;BME280;12600;53.326;-6.298;2023-02-12T13:46:25;102932.75;;;14.83;45.06
24422;BME280;12600;53.326;-6.298;2023-02-12T13:49:27;102925.41;;;14.69;45.24
24422;BME280;12600;53.326;-6.298;2023-02-12T13:52:27;102919.34;;;14.67;45.50
24422;BME280;12600;53.326;-6.298;2023-02-12T13:55:24;102927.88;;;14.70;46.10
24422;BME280;12600;53.326;-6.298;2023-02-12T13:58:49;102918.28;;;14.63;46.64
24422;BME280;12600;53.326;-6.298;2023-02-12T14:01:42;102919.94;;;14.64;46.58
24422;BME280;12600;53.326;-6.298;2023-02-12T14:04:38;102920.47;;;14.66;46.91
24422;BME280;12600;53.326;-6.298;2023-02-12T14:07:42;102915.78;;;14.66;47.21
24422;BME280;12600;53.326;-6.298;2023-02-12T14:10:36;102909.44;;;14.76;46.94
24422;BME280;12600;53.326;-6.298;2023-02-12T14:13:25;102914.53;;;14.98;47.04
24422;BME280;12600;53.326;-6.298;2023-02-12T14:16:38;102902.16;;;15.00;46.68
24422;BME280;12600;53.326;-6.298;2023-02-12T14:19:51;102896.34;;;15.02;46.62
24422;BME280;12600;53.326;-6.298;2023-02-12T14:23:27;102900.47;;;14.99;46.85
24422;BME280;12600;53.326;-6.298;2023-02-12T14:26:22;102896.97;;;14.89;46.95
24422;BME280;12600;53.326;-6.298;2023-02-12T14:29:18;102891.47;;;14.89;47.22
24422;BME280;12600;53.326;-6.298;2023-02-12T14:36:19;102896.00;;;14.64;48.27
24422;BME280;12600;53.326;-6.298;2023-02-12T14:39:28;102899.63;;;14.39;48.78
24422;BME280;12600;53.326;-6.298;2023-02-12T14:42:42;102900.78;;;14.18;49.27
24422;BME280;12600;53.326;-6.298;2023-02-12T14:45:34;102888.44;;;14.05;49.68
24422;BME280;12600;53.326;-6.298;2023-02-12T14:48:49;102889.03;;;13.97;49.96
24422;BME280;12600;53.326;-6.298;2023-02-12T14:51:45;102884.34;;;13.87;50.54
24422;BME280;12600;53.326;-6.298;2023-02-12T14:54:42;102874.75;;;13.80;50.48
24422;BME280;12600;53.326;-6.298;2023-02-12T14:57:36;102887.09;;;13.82;50.96
24422;BME280;12600;53.326;-6.298;2023-02-12T15:00:33;102884.63;;;13.76;51.20
24422;BME280;12600;53.326;-6.298;2023-02-12T15:03:30;102890.94;;;13.86;51.57
24422;BME280;12600;53.326;-6.298;2023-02-12T15:06:22;102886.28;;;13.82;51.27
24422;BME280;12600;53.326;-6.298;2023-02-12T15:09:27;102881.06;;;13.80;51.91
24422;BME280;12600;53.326;-6.298;2023-02-12T15:12:21;102865.13;;;13.77;51.71
24422;BME280;12600;53.326;-6.298;2023-02-12T15:15:24;102884.38;;;13.72;51.83
24422;BME280;12600;53.326;-6.298;2023-02-12T15:18:23;102880.25;;;13.80;51.96
24422;BME280;12600;53.326;-6.298;2023-02-12T15:21:19;102863.75;;;13.69;51.70
24422;BME280;12600;53.326;-6.298;2023-02-12T15:24:12;102880.47;;;13.93;51.71